sensor_id;sensor_type;location;lat;lon;timestamp;pressure;altitude;pressure_sealevel;temperature;humidity
62697;BME280;48761;42.680;23.312;2023-02-13T00:01:22;96567.38;;;1.64;72.83
62697;BME280;48761;42.680;23.312;2023-02-13T00:03:49;96562.13;;;1.64;72.64
62697;BME280;48761;42.680;23.312;2023-02-13T00:06:14;96554.34;;;1.52;72.79
62697;BME280;48761;42.680;23.312;2023-02-13T00:08:40;96568.38;;;1.44;73.04
62697;BME280;48761;42.680;23.312;2023-02-13T00:11:06;96574.41;;;1.59;72.76
62697;BME280;48761;42.680;23.312;2023-02-13T00:13:33;96570.06;;;1.55;73.00
62697;BME280;48761;42.680;23.312;2023-02-13T00:16:01;96563.94;;;1.56;72.93
62697;BME280;48761;42.680;23.312;2023-02-13T00:18:28;96539.53;;;1.48;72.72
62697;BME280;48761;42.680;23.312;2023-02-13T00:21:05;96566.56;;;1.59;72.59
62697;BME280;48761;42.680;23.312;2023-02-13T00:23:32;96572.69;;;1.55;73.17
62697;BME280;48761;42.680;23.312;2023-02-13T00:26:00;96536.88;;;1.49;72.82
62697;BME280;48761;42.680;23.312;2023-02-13T00:28:26;96546.47;;;1.52;72.55
62697;BME280;48761;42.680;23.312;2023-02-13T00:30:52;96558.66;;;1.62;72.59
62697;BME280;48761;42.680;23.312;2023-02-13T00:33:18;96568.16;;;1.76;72.28
62697;BME280;48761;42.680;23.312;2023-02-13T00:35:44;96581.28;;;1.76;72.46
62697;BME280;48761;42.680;23.312;2023-02-13T00:38:10;96568.25;;;1.65;72.08
62697;BME280;48761;42.680;23.312;2023-02-13T00:40:36;96578.69;;;1.73;72.34
62697;BME280;48761;42.680;23.312;2023-02-13T00:43:02;96581.31;;;1.73;72.45
62697;BME280;48761;42.680;23.312;2023-02-13T00:45:28;96581.31;;;1.73;72.43
62697;BME280;48761;42.680;23.312;2023-02-13T00:47:54;96555.16;;;1.63;72.07
62697;BME280;48761;42.680;23.312;2023-02-13T00:50:20;96547.38;;;1.51;72.28
62697;BME280;48761;42.680;23.312;2023-02-13T00:52:46;96556.94;;;1.58;72.38
62697;BME280;48761;42.680;23.312;2023-02-13T00:55:12;96576.13;;;1.60;72.37
62697;BME280;48761;42.680;23.312;2023-02-13T00:57:38;96588.28;;;1.77;72.24
62697;BME280;48761;42.680;23.312;2023-02-13T01:00:04;96586.53;;;1.73;72.10
62697;BME280;48761;42.680;23.312;2023-02-13T01:02:30;96580.47;;;1.69;72.44
62697;BME280;48761;42.680;23.312;2023-02-13T01:04:56;96594.38;;;1.79;72.34
62697;BME280;48761;42.680;23.312;2023-02-13T01:07:22;96598.78;;;1.77;72.64
62697;BME280;48761;42.680;23.312;2023-02-13T01:09:48;96562.19;;;1.55;72.59
62697;BME280;48761;42.680;23.312;2023-02-13T01:12:14;96586.63;;;1.63;73.12
62697;BME280;48761;42.680;23.312;2023-02-13T01:14:40;96557.09;;;1.36;73.41
62697;BME280;48761;42.680;23.312;2023-02-13T01:17:06;96591.88;;;1.62;73.64
62697;BME280;48761;42.680;23.312;2023-02-13T01:19:32;96596.19;;;1.67;73.47
62697;BME280;48761;42.680;23.312;2023-02-13T01:21:58;96576.16;;;1.57;73.44
62697;BME280;48761;42.680;23.312;2023-02-13T01:24:23;96602.31;;;1.68;73.30
62697;BME280;48761;42.680;23.312;2023-02-13T01:26:49;96602.28;;;1.70;73.85
62697;BME280;48761;42.680;23.312;2023-02-13T01:29:15;96601.44;;;1.64;73.91
62697;BME280;48761;42.680;23.312;2023-02-13T01:31:41;96590.09;;;1.62;73.76
62697;BME280;48761;42.680;23.312;2023-02-13T01:34:07;96584.09;;;1.48;74.51
62697;BME280;48761;42.680;23.312;2023-02-13T01:36:33;96601.53;;;1.56;74.67
62697;BME280;48761;42.680;23.312;2023-02-13T01:38:59;96602.38;;;1.60;74.26
62697;BME280;48761;42.680;23.312;2023-02-13T01:41:26;96587.56;;;1.53;74.43
62697;BME280;48761;42.680;23.312;2023-02-13T01:43:57;96603.16;;;1.70;74.08
62697;BME280;48761;42.680;23.312;2023-02-13T01:49:06;96604.03;;;1.77;74.42
62697;BME280;48761;42.680;23.312;2023-02-13T01:51:37;96584.88;;;1.64;74.11
62697;BME280;48761;42.680;23.312;2023-02-13T01:54:14;96611.03;;;1.72;74.12
62697;BME280;48761;42.680;23.312;2023-02-13T01:56:45;96612.78;;;1.70;74.05
62697;BME280;48761;42.680;23.312;2023-02-13T01:59:18;96605.91;;;1.53;74.76
62697;BME280;48761;42.680;23.312;2023-02-13T02:01:45;96609.38;;;1.56;74.94
62697;BME280;48761;42.680;23.312;2023-02-13T02:04:20;96615.50;;;1.52;74.84
62697;BME280;48761;42.680;23.312;2023-02-13T02:06:50;96612.78;;;1.70;75.05
62697;BME280;48761;42.680;23.312;2023-02-13T02:09:20;96614.53;;;1.71;74.78
62697;BME280;48761;42.680;23.312;2023-02-13T02:12:00;96608.59;;;1.40;75.41
62697;BME280;48761;42.680;23.312;2023-02-13T02:14:27;96606.78;;;1.52;75.23
62697;BME280;48761;42.680;23.312;2023-02-13T02:16:55;96604.13;;;1.58;75.07
62697;BME280;48761;42.680;23.312;2023-02-13T02:19:38;96605.81;;;1.67;75.13
62697;BME280;48761;42.680;23.312;2023-02-13T02:30:42;96608.44;;;1.68;74.90
62697;BME280;48761;42.680;23.312;2023-02-13T02:33:25;96599.66;;;1.74;74.73
62697;BME280;48761;42.680;23.312;2023-02-13T02:42:05;96618.16;;;1.48;75.47
62697;BME280;48761;42.680;23.312;2023-02-13T02:44:41;96614.75;;;1.36;76.00
62697;BME280;48761;42.680;23.312;2023-02-13T02:50:30;96623.59;;;1.13;76.70
62697;BME280;48761;42.680;23.312;2023-02-13T02:56:04;96632.34;;;1.06;76.99
62697;BME280;48761;42.680;23.312;2023-02-13T02:58:46;96629.69;;;1.14;76.86
62697;BME280;48761;42.680;23.312;2023-02-13T03:01:17;96641.03;;;1.17;76.45
62697;BME280;48761;42.680;23.312;2023-02-13T03:03:46;96629.63;;;1.28;76.15
62697;BME280;48761;42.680;23.312;2023-02-13T03:06:21;96636.56;;;1.40;76.05
62697;BME280;48761;42.680;23.312;2023-02-13T03:08:57;96633.06;;;1.44;75.57
62697;BME280;48761;42.680;23.312;2023-02-13T03:11:25;96627.78;;;1.47;75.21
62697;BME280;48761;42.680;23.312;2023-02-13T03:13:52;96605.09;;;1.43;75.05
62697;BME280;48761;42.680;23.312;2023-02-13T03:16:22;96630.47;;;1.36;75.47
62697;BME280;48761;42.680;23.312;2023-02-13T03:18:51;96621.63;;;1.56;75.10
62697;BME280;48761;42.680;23.312;2023-02-13T03:24:10;96626.88;;;1.50;75.05
62697;BME280;48761;42.680;23.312;2023-02-13T03:30:07;96636.38;;;1.73;74.83
62697;BME280;48761;42.680;23.312;2023-02-13T03:33:29;96627.69;;;1.66;74.81
62697;BME280;48761;42.680;23.312;2023-02-13T03:35:46;96629.47;;;1.54;74.38
62697;BME280;48761;42.680;23.312;2023-02-13T03:38:17;96631.34;;;1.35;74.88
62697;BME280;48761;42.680;23.312;2023-02-13T03:40:52;96625.31;;;1.14;76.19
62697;BME280;48761;42.680;23.312;2023-02-13T03:43:21;96626.13;;;1.24;75.69
62697;BME280;48761;42.680;23.312;2023-02-13T03:45:49;96620.00;;;1.33;75.88
62697;BME280;48761;42.680;23.312;2023-02-13T03:48:24;96633.94;;;1.41;75.37
62697;BME280;48761;42.680;23.312;2023-02-13T03:50:51;96612.97;;;1.41;75.30
62697;BME280;48761;42.680;23.312;2023-02-13T03:53:18;96626.03;;;1.44;75.08
62697;BME280;48761;42.680;23.312;2023-02-13T03:55:46;96628.63;;;1.49;74.69
62697;BME280;48761;42.680;23.312;2023-02-13T03:58:20;96626.06;;;1.40;74.82
62697;BME280;48761;42.680;23.312;2023-02-13T04:00:50;96630.41;;;1.49;74.80
62697;BME280;48761;42.680;23.312;2023-02-13T04:03:24;96628.63;;;1.52;74.79
62697;BME280;48761;42.680;23.312;2023-02-13T04:06:03;96626.94;;;1.43;74.42
62697;BME280;48761;42.680;23.312;2023-02-13T04:08:30;96629.53;;;1.42;74.80
62697;BME280;48761;42.680;23.312;2023-02-13T04:13:51;96630.38;;;1.52;74.57
62697;BME280;48761;42.680;23.312;2023-02-13T04:16:26;96632.13;;;1.53;74.15
62697;BME280;48761;42.680;23.312;2023-02-13T04:18:54;96634.72;;;1.59;74.20
62697;BME280;48761;42.680;23.312;2023-02-13T04:21:22;96604.22;;;1.42;73.97
62697;BME280;48761;42.680;23.312;2023-02-13T04:23:48;96630.34;;;1.61;73.60
62697;BME280;48761;42.680;23.312;2023-02-13T04:26:20;96646.94;;;1.63;73.63
62697;BME280;48761;42.680;23.312;2023-02-13T04:28:47;96631.38;;;1.27;74.46
62697;BME280;48761;42.680;23.312;2023-02-13T04:31:13;96621.81;;;1.18;74.86
62697;BME280;48761;42.680;23.312;2023-02-13T04:33:39;96630.56;;;1.16;75.36
62697;BME280;48761;42.680;23.312;2023-02-13T04:36:05;96637.50;;;1.25;75.13
62697;BME280;48761;42.680;23.312;2023-02-13T04:38:31;96641.88;;;1.22;75.40
62697;BME280;48761;42.680;23.312;2023-02-13T04:40:57;96638.41;;;1.19;75.54
62697;BME280;48761;42.680;23.312;2023-02-13T04:43:23;96634.00;;;1.22;75.26
62697;BME280;48761;42.680;23.312;2023-02-13T04:45:50;96633.13;;;1.27;75.21
62697;BME280;48761;42.680;23.312;2023-02-13T04:48:16;96622.66;;;1.23;75.32
62697;BME280;48761;42.680;23.312;2023-02-13T04:50:42;96641.84;;;1.24;74.87
62697;BME280;48761;42.680;23.312;2023-02-13T04:53:08;96616.72;;;0.77;75.97
62697;BME280;48761;42.680;23.312;2023-02-13T04:55:34;96621.13;;;0.53;77.02
62697;BME280;48761;42.680;23.312;2023-02-13T04:58:00;96639.47;;;0.42;78.24
62697;BME280;48761;42.680;23.312;2023-02-13T05:00:27;96650.81;;;0.37;78.35
62697;BME280;48761;42.680;23.312;2023-02-13T05:02:59;96654.31;;;0.37;78.27
62697;BME280;48761;42.680;23.312;2023-02-13T05:05:25;96654.28;;;0.39;78.45
62697;BME280;48761;42.680;23.312;2023-02-13T05:07:51;96635.13;;;0.35;78.41
62697;BME280;48761;42.680;23.312;2023-02-13T05:10:17;96663.84;;;0.63;77.27
62697;BME280;48761;42.680;23.312;2023-02-13T05:12:43;96656.88;;;0.73;76.90
62697;BME280;48761;42.680;23.312;2023-02-13T05:15:09;96623.75;;;0.50;76.72
62697;BME280;48761;42.680;23.312;2023-02-13T05:17:35;96629.84;;;0.51;76.55
62697;BME280;48761;42.680;23.312;2023-02-13T05:20:01;96662.09;;;0.80;76.04
62697;BME280;48761;42.680;23.312;2023-02-13T05:22:27;96665.63;;;0.53;76.94
62697;BME280;48761;42.680;23.312;2023-02-13T05:24:52;96675.25;;;0.53;76.98
62697;BME280;48761;42.680;23.312;2023-02-13T05:27:18;96669.13;;;0.33;77.14
62697;BME280;48761;42.680;23.312;2023-02-13T05:29:44;96672.63;;;0.26;76.83
62697;BME280;48761;42.680;23.312;2023-02-13T05:32:10;96670.03;;;0.28;76.83
62697;BME280;48761;42.680;23.312;2023-02-13T05:34:36;96669.13;;;0.15;76.51
62697;BME280;48761;42.680;23.312;2023-02-13T05:37:02;96672.63;;;0.04;77.03
62697;BME280;48761;42.680;23.312;2023-02-13T05:39:28;96675.19;;;-0.10;77.59
62697;BME280;48761;42.680;23.312;2023-02-13T05:41:54;96680.47;;;0.18;76.84
62697;BME280;48761;42.680;23.312;2023-02-13T05:44:20;96667.34;;;-0.12;77.58
62697;BME280;48761;42.680;23.312;2023-02-13T05:46:46;96681.31;;;-0.08;77.86
62697;BME280;48761;42.680;23.312;2023-02-13T05:49:13;96672.59;;;-0.18;78.13
62697;BME280;48761;42.680;23.312;2023-02-13T05:51:39;96666.50;;;-0.09;77.71
62697;BME280;48761;42.680;23.312;2023-02-13T05:54:05;96682.22;;;0.02;77.41
62697;BME280;48761;42.680;23.312;2023-02-13T05:56:31;96684.81;;;0.12;77.52
62697;BME280;48761;42.680;23.312;2023-02-13T05:58:57;96690.91;;;-0.02;77.36
62697;BME280;48761;42.680;23.312;2023-02-13T06:01:23;96658.63;;;-0.17;77.17
62697;BME280;48761;42.680;23.312;2023-02-13T06:03:50;96689.19;;;0.00;76.70
62697;BME280;48761;42.680;23.312;2023-02-13T06:06:16;96693.53;;;0.01;77.16
62697;BME280;48761;42.680;23.312;2023-02-13T06:08:42;96692.66;;;0.04;76.80
62697;BME280;48761;42.680;23.312;2023-02-13T06:11:08;96690.03;;;-0.04;76.92
62697;BME280;48761;42.680;23.312;2023-02-13T06:13:34;96697.00;;;0.03;76.97
62697;BME280;48761;42.680;23.312;2023-02-13T06:16:00;96669.97;;;-0.18;76.97
62697;BME280;48761;42.680;23.312;2023-02-13T06:18:26;96693.50;;;-0.02;76.93
62697;BME280;48761;42.680;23.312;2023-02-13T06:20:52;96697.03;;;-0.03;76.82
62697;BME280;48761;42.680;23.312;2023-02-13T06:23:18;96683.06;;;-0.12;76.74
62697;BME280;48761;42.680;23.312;2023-02-13T06:25:44;96704.84;;;-0.05;76.72
62697;BME280;48761;42.680;23.312;2023-02-13T06:28:10;96693.53;;;0.04;76.34
62697;BME280;48761;42.680;23.312;2023-02-13T06:30:36;96694.38;;;-0.05;77.17
62697;BME280;48761;42.680;23.312;2023-02-13T06:33:02;96682.16;;;-0.12;76.74
62697;BME280;48761;42.680;23.312;2023-02-13T06:35:27;96710.97;;;0.02;76.65
62697;BME280;48761;42.680;23.312;2023-02-13T06:37:53;96710.97;;;0.08;76.07
62697;BME280;48761;42.680;23.312;2023-02-13T06:40:19;96690.00;;;-0.07;76.46
62697;BME280;48761;42.680;23.312;2023-02-13T06:42:45;96707.50;;;0.09;76.24
62697;BME280;48761;42.680;23.312;2023-02-13T06:45:12;96677.81;;;-0.15;76.36
62697;BME280;48761;42.680;23.312;2023-02-13T06:47:43;96722.28;;;0.03;76.74
62697;BME280;48761;42.680;23.312;2023-02-13T06:50:11;96704.00;;;0.07;76.68
62697;BME280;48761;42.680;23.312;2023-02-13T06:52:37;96718.84;;;0.33;76.75
62697;BME280;48761;42.680;23.312;2023-02-13T06:55:03;96717.97;;;0.28;77.26
62697;BME280;48761;42.680;23.312;2023-02-13T06:57:30;96715.34;;;0.36;76.79
62697;BME280;48761;42.680;23.312;2023-02-13T06:59:57;96707.50;;;0.46;76.68
62697;BME280;48761;42.680;23.312;2023-02-13T07:02:22;96683.97;;;0.22;76.16
62697;BME280;48761;42.680;23.312;2023-02-13T07:04:48;96670.88;;;0.25;75.57
62697;BME280;48761;42.680;23.312;2023-02-13T07:07:14;96711.84;;;0.64;74.88
62697;BME280;48761;42.680;23.312;2023-02-13T07:09:40;96694.41;;;0.75;74.51
62697;BME280;48761;42.680;23.312;2023-02-13T07:12:07;96710.13;;;0.69;74.73
62697;BME280;48761;42.680;23.312;2023-02-13T07:14:34;96678.69;;;0.80;73.82
62697;BME280;48761;42.680;23.312;2023-02-13T07:17:01;96641.22;;;0.32;75.03
62697;BME280;48761;42.680;23.312;2023-02-13T07:19:28;96707.47;;;0.78;75.86
62697;BME280;48761;42.680;23.312;2023-02-13T07:21:54;96669.97;;;0.48;76.29
62697;BME280;48761;42.680;23.312;2023-02-13T07:24:20;96691.78;;;0.66;76.16
62697;BME280;48761;42.680;23.312;2023-02-13T07:26:46;96681.34;;;0.60;75.92
62697;BME280;48761;42.680;23.312;2023-02-13T07:29:12;96697.88;;;0.76;75.70
62697;BME280;48761;42.680;23.312;2023-02-13T07:31:39;96655.16;;;0.53;75.58
62697;BME280;48761;42.680;23.312;2023-02-13T07:34:06;96724.03;;;0.92;75.55
62697;BME280;48761;42.680;23.312;2023-02-13T07:36:32;96724.94;;;0.92;75.71
62697;BME280;48761;42.680;23.312;2023-02-13T07:38:58;96692.66;;;0.88;75.16
62697;BME280;48761;42.680;23.312;2023-02-13T07:41:27;96712.69;;;1.08;74.06
62697;BME280;48761;42.680;23.312;2023-02-13T07:43:54;96715.28;;;1.18;74.67
62697;BME280;48761;42.680;23.312;2023-02-13T07:46:19;96719.66;;;1.11;74.44
62697;BME280;48761;42.680;23.312;2023-02-13T07:48:45;96686.44;;;1.22;74.11
62697;BME280;48761;42.680;23.312;2023-02-13T07:51:11;96717.84;;;1.32;73.92
62697;BME280;48761;42.680;23.312;2023-02-13T07:53:38;96664.66;;;1.00;73.64
62697;BME280;48761;42.680;23.312;2023-02-13T07:56:05;96689.91;;;1.31;74.17
62697;BME280;48761;42.680;23.312;2023-02-13T07:58:32;96713.44;;;1.47;73.09
62697;BME280;48761;42.680;23.312;2023-02-13T08:00:58;96704.75;;;1.30;73.69
62697;BME280;48761;42.680;23.312;2023-02-13T08:03:24;96710.88;;;1.21;74.44
62697;BME280;48761;42.680;23.312;2023-02-13T08:05:50;96702.16;;;1.29;74.03
62697;BME280;48761;42.680;23.312;2023-02-13T08:08:16;96721.22;;;1.62;73.71
62697;BME280;48761;42.680;23.312;2023-02-13T08:10:43;96721.19;;;1.68;73.35
62697;BME280;48761;42.680;23.312;2023-02-13T08:13:11;96709.06;;;1.44;74.03
62697;BME280;48761;42.680;23.312;2023-02-13T08:15:37;96706.47;;;1.41;72.85
62697;BME280;48761;42.680;23.312;2023-02-13T08:18:03;96716.03;;;1.48;73.13
62697;BME280;48761;42.680;23.312;2023-02-13T08:20:29;96691.63;;;1.32;73.47
62697;BME280;48761;42.680;23.312;2023-02-13T08:23:02;96695.97;;;1.38;73.62
62697;BME280;48761;42.680;23.312;2023-02-13T08:25:29;96715.19;;;1.46;73.91
62697;BME280;48761;42.680;23.312;2023-02-13T08:27:55;96710.81;;;1.47;73.02
62697;BME280;48761;42.680;23.312;2023-02-13T08:30:21;96710.81;;;1.47;73.26
62697;BME280;48761;42.680;23.312;2023-02-13T08:32:47;96709.06;;;1.49;73.42
62697;BME280;48761;42.680;23.312;2023-02-13T08:35:13;96724.69;;;1.64;72.53
62697;BME280;48761;42.680;23.312;2023-02-13T08:37:39;96715.09;;;1.60;72.74
62697;BME280;48761;42.680;23.312;2023-02-13T08:40:06;96684.66;;;1.31;73.26
62697;BME280;48761;42.680;23.312;2023-02-13T08:42:33;96717.66;;;1.73;73.39
62697;BME280;48761;42.680;23.312;2023-02-13T08:44:59;96702.84;;;1.68;72.62
62697;BME280;48761;42.680;23.312;2023-02-13T08:47:25;96720.31;;;1.74;72.90
62697;BME280;48761;42.680;23.312;2023-02-13T08:49:51;96714.19;;;1.74;72.37
62697;BME280;48761;42.680;23.312;2023-02-13T08:52:17;96717.63;;;1.82;72.45
62697;BME280;48761;42.680;23.312;2023-02-13T08:54:43;96708.72;;;2.15;71.80
62697;BME280;48761;42.680;23.312;2023-02-13T08:57:09;96720.84;;;2.25;71.81
62697;BME280;48761;42.680;23.312;2023-02-13T08:59:35;96703.56;;;1.93;71.53
62697;BME280;48761;42.680;23.312;2023-02-13T09:02:01;96725.34;;;2.12;71.68
62697;BME280;48761;42.680;23.312;2023-02-13T09:04:27;96714.94;;;1.99;71.66
62697;BME280;48761;42.680;23.312;2023-02-13T09:06:53;96692.09;;;2.08;71.69
62697;BME280;48761;42.680;23.312;2023-02-13T09:09:19;96718.19;;;2.31;71.25
62697;BME280;48761;42.680;23.312;2023-02-13T09:11:45;96716.44;;;2.33;70.89
62697;BME280;48761;42.680;23.312;2023-02-13T09:14:11;96720.81;;;2.31;70.90
62697;BME280;48761;42.680;23.312;2023-02-13T09:16:37;96706.78;;;2.35;70.84
62697;BME280;48761;42.680;23.312;2023-02-13T09:19:03;96707.72;;;2.28;70.29
62697;BME280;48761;42.680;23.312;2023-02-13T09:21:29;96701.59;;;2.29;70.81
62697;BME280;48761;42.680;23.312;2023-02-13T09:23:55;96685.06;;;2.19;70.29
62697;BME280;48761;42.680;23.312;2023-02-13T09:26:21;96703.38;;;2.27;70.58
62697;BME280;48761;42.680;23.312;2023-02-13T09:28:47;96704.19;;;2.31;70.84
62697;BME280;48761;42.680;23.312;2023-02-13T09:31:16;96700.00;;;2.09;70.94
62697;BME280;48761;42.680;23.312;2023-02-13T09:33:43;96694.63;;;2.23;71.17
62697;BME280;48761;42.680;23.312;2023-02-13T09:36:12;96670.00;;;2.42;70.07
62697;BME280;48761;42.680;23.312;2023-02-13T09:38:40;96699.59;;;2.63;70.24
62697;BME280;48761;42.680;23.312;2023-02-13T09:41:10;96689.09;;;2.60;70.08
62697;BME280;48761;42.680;23.312;2023-02-13T09:43:45;96689.13;;;2.56;70.04
62697;BME280;48761;42.680;23.312;2023-02-13T09:46:24;96676.81;;;2.65;69.64
62697;BME280;48761;42.680;23.312;2023-02-13T09:48:57;96634.06;;;2.50;69.95
62697;BME280;48761;42.680;23.312;2023-02-13T09:51:25;96655.59;;;2.84;69.30
62697;BME280;48761;42.680;23.312;2023-02-13T09:54:01;96654.22;;;2.45;70.04
62697;BME280;48761;42.680;23.312;2023-02-13T10:02:07;96670.88;;;3.31;68.54
62697;BME280;48761;42.680;23.312;2023-02-13T10:13:41;96645.25;;;5.12;63.53
62697;BME280;48761;42.680;23.312;2023-02-13T10:16:18;96612.56;;;5.21;61.37
62697;BME280;48761;42.680;23.312;2023-02-13T10:21:19;96635.34;;;5.66;60.29
62697;BME280;48761;42.680;23.312;2023-02-13T10:23:53;96643.34;;;5.63;60.30
62697;BME280;48761;42.680;23.312;2023-02-13T10:26:25;96573.47;;;5.80;59.54
62697;BME280;48761;42.680;23.312;2023-02-13T10:31:48;96581.59;;;6.10;58.37
62697;BME280;48761;42.680;23.312;2023-02-13T10:34:16;96614.13;;;6.49;57.38
62697;BME280;48761;42.680;23.312;2023-02-13T10:36:46;96596.75;;;6.73;57.05
62697;BME280;48761;42.680;23.312;2023-02-13T10:39:22;96603.78;;;6.73;56.68
62697;BME280;48761;42.680;23.312;2023-02-13T10:50:13;96588.03;;;6.35;56.32
62697;BME280;48761;42.680;23.312;2023-02-13T10:55:50;96560.22;;;6.20;56.00
62697;BME280;48761;42.680;23.312;2023-02-13T10:58:37;96589.72;;;6.37;56.10
62697;BME280;48761;42.680;23.312;2023-02-13T11:03:37;96542.25;;;5.98;55.77
62697;BME280;48761;42.680;23.312;2023-02-13T11:06:11;96545.41;;;6.49;55.68
62697;BME280;48761;42.680;23.312;2023-02-13T11:08:46;96564.06;;;6.76;55.18
62697;BME280;48761;42.680;23.312;2023-02-13T11:11:40;96534.31;;;6.68;54.57
62697;BME280;48761;42.680;23.312;2023-02-13T11:17:04;96498.47;;;6.59;54.97
62697;BME280;48761;42.680;23.312;2023-02-13T11:19:48;96494.06;;;6.59;54.59
62697;BME280;48761;42.680;23.312;2023-02-13T11:30:31;96474.19;;;6.76;54.03
62697;BME280;48761;42.680;23.312;2023-02-13T11:33:26;96469.69;;;6.48;54.24
62697;BME280;48761;42.680;23.312;2023-02-13T11:36:13;96470.72;;;6.74;54.03
62697;BME280;48761;42.680;23.312;2023-02-13T11:39:04;96508.56;;;7.06;54.12
62697;BME280;48761;42.680;23.312;2023-02-13T11:44:41;96442.38;;;6.49;53.65
62697;BME280;48761;42.680;23.312;2023-02-13T11:55:33;96434.91;;;6.94;52.04
62697;BME280;48761;42.680;23.312;2023-02-13T12:06:25;96386.44;;;7.22;51.25
62697;BME280;48761;42.680;23.312;2023-02-13T12:08:56;96433.47;;;7.41;50.49
62697;BME280;48761;42.680;23.312;2023-02-13T12:14:24;96411.94;;;7.25;51.07
62697;BME280;48761;42.680;23.312;2023-02-13T12:25:21;96430.59;;;7.20;50.36
62697;BME280;48761;42.680;23.312;2023-02-13T12:28:19;96439.53;;;7.16;50.03
62697;BME280;48761;42.680;23.312;2023-02-13T12:31:05;96410.28;;;6.92;49.11
62697;BME280;48761;42.680;23.312;2023-02-13T12:39:33;96438.81;;;7.11;48.97
62697;BME280;48761;42.680;23.312;2023-02-13T12:48:31;96365.75;;;6.49;48.60
62697;BME280;48761;42.680;23.312;2023-02-13T12:59:48;96402.88;;;6.75;48.56
62697;BME280;48761;42.680;23.312;2023-02-13T13:10:58;96353.34;;;6.51;49.18
62697;BME280;48761;42.680;23.312;2023-02-13T13:16:26;96388.66;;;6.79;50.36
62697;BME280;48761;42.680;23.312;2023-02-13T13:27:20;96366.41;;;6.56;48.83
62697;BME280;48761;42.680;23.312;2023-02-13T13:29:55;96346.88;;;6.31;49.39
62697;BME280;48761;42.680;23.312;2023-02-13T13:32:27;96379.03;;;6.76;49.23
62697;BME280;48761;42.680;23.312;2023-02-13T13:34:56;96356.78;;;6.55;49.14
62697;BME280;48761;42.680;23.312;2023-02-13T13:40:58;96375.75;;;6.68;49.25
62697;BME280;48761;42.680;23.312;2023-02-13T13:43:34;96374.06;;;6.65;49.40
62697;BME280;48761;42.680;23.312;2023-02-13T13:51:42;96317.69;;;6.04;50.01
62697;BME280;48761;42.680;23.312;2023-02-13T14:05:21;96359.63;;;6.16;50.32
62697;BME280;48761;42.680;23.312;2023-02-13T14:07:51;96301.53;;;5.83;50.59
62697;BME280;48761;42.680;23.312;2023-02-13T14:20:37;96358.47;;;6.25;50.93
62697;BME280;48761;42.680;23.312;2023-02-13T14:23:25;96355.84;;;6.25;51.26
62697;BME280;48761;42.680;23.312;2023-02-13T14:31:27;96322.00;;;6.08;51.69
62697;BME280;48761;42.680;23.312;2023-02-13T14:36:46;96331.53;;;6.12;51.56
62697;BME280;48761;42.680;23.312;2023-02-13T14:39:30;96342.41;;;6.33;51.09
62697;BME280;48761;42.680;23.312;2023-02-13T14:41:59;96342.31;;;6.36;51.43
62697;BME280;48761;42.680;23.312;2023-02-13T14:44:55;96331.38;;;6.19;51.22
62697;BME280;48761;42.680;23.312;2023-02-13T14:47:34;96326.19;;;6.15;51.08
62697;BME280;48761;42.680;23.312;2023-02-13T14:50:04;96326.44;;;6.06;51.44
62697;BME280;48761;42.680;23.312;2023-02-13T14:52:36;96303.84;;;5.96;51.64
62697;BME280;48761;42.680;23.312;2023-02-13T14:55:37;96318.13;;;5.88;51.84
62697;BME280;48761;42.680;23.312;2023-02-13T14:58:22;96339.72;;;6.03;51.98
62697;BME280;48761;42.680;23.312;2023-02-13T15:01:06;96312.84;;;5.88;52.08
62697;BME280;48761;42.680;23.312;2023-02-13T15:03:46;96313.78;;;5.86;52.11
62697;BME280;48761;42.680;23.312;2023-02-13T15:06:34;96295.88;;;5.65;52.36
62697;BME280;48761;42.680;23.312;2023-02-13T15:09:36;96341.88;;;5.88;52.15
62697;BME280;48761;42.680;23.312;2023-02-13T15:12:34;96320.34;;;5.70;52.40
62697;BME280;48761;42.680;23.312;2023-02-13T15:15:16;96312.78;;;5.56;52.36
62697;BME280;48761;42.680;23.312;2023-02-13T15:17:47;96315.41;;;5.58;52.49
62697;BME280;48761;42.680;23.312;2023-02-13T15:22:44;96326.03;;;5.55;52.70
62697;BME280;48761;42.680;23.312;2023-02-13T15:25:31;96340.03;;;5.57;52.46
62697;BME280;48761;42.680;23.312;2023-02-13T15:27:59;96303.75;;;5.32;52.73
62697;BME280;48761;42.680;23.312;2023-02-13T15:30:31;96342.19;;;5.42;53.17
62697;BME280;48761;42.680;23.312;2023-02-13T15:35:41;96304.69;;;5.29;53.07
62697;BME280;48761;42.680;23.312;2023-02-13T15:38:27;96348.41;;;5.40;53.39
62697;BME280;48761;42.680;23.312;2023-02-13T15:41:12;96330.44;;;5.19;53.63
62697;BME280;48761;42.680;23.312;2023-02-13T15:43:49;96315.00;;;5.03;53.99
62697;BME280;48761;42.680;23.312;2023-02-13T15:46:29;96338.47;;;5.14;53.85
62697;BME280;48761;42.680;23.312;2023-02-13T15:48:59;96348.13;;;5.15;53.81
62697;BME280;48761;42.680;23.312;2023-02-13T15:51:27;96331.09;;;4.91;54.18
62697;BME280;48761;42.680;23.312;2023-02-13T15:54:02;96356.00;;;5.17;53.82
62697;BME280;48761;42.680;23.312;2023-02-13T15:56:29;96318.84;;;4.90;54.17
62697;BME280;48761;42.680;23.312;2023-02-13T15:58:56;96317.09;;;4.89;54.08
62697;BME280;48761;42.680;23.312;2023-02-13T16:01:23;96357.91;;;5.10;53.89
62697;BME280;48761;42.680;23.312;2023-02-13T16:03:53;96333.75;;;4.91;54.55
62697;BME280;48761;42.680;23.312;2023-02-13T16:06:22;96336.53;;;4.85;54.47
62697;BME280;48761;42.680;23.312;2023-02-13T16:09:02;96341.88;;;4.81;54.40
62697;BME280;48761;42.680;23.312;2023-02-13T16:11:33;96335.03;;;4.74;54.87
62697;BME280;48761;42.680;23.312;2023-02-13T16:14:04;96364.53;;;4.89;55.10
62697;BME280;48761;42.680;23.312;2023-02-13T16:16:47;96361.31;;;4.77;55.08
62697;BME280;48761;42.680;23.312;2023-02-13T16:19:31;96349.19;;;4.70;55.69
62697;BME280;48761;42.680;23.312;2023-02-13T16:24:51;96342.81;;;4.37;56.08
62697;BME280;48761;42.680;23.312;2023-02-13T16:27:21;96382.66;;;4.65;56.29
62697;BME280;48761;42.680;23.312;2023-02-13T16:29:55;96313.53;;;4.12;56.43
62697;BME280;48761;42.680;23.312;2023-02-13T16:32:27;96319.63;;;4.14;56.46